PWSweather.com
Personal Weather Stations
Station Observations
SHAHALMS1
Eftra, Falkenberg, HA

EftraFalkenberg, HA

Lat: 56.85, Lon: 12.65

Elevation: 140

Station Type:

http://hem.passagen.se/risarp101

High Low Average
Temperature 62.1°F16.7°C 56.8°F13.8°C 58.6°F14.8°C
Dew Point 60.6°F15.9°C 49.1°F9.5°C 53.5°F11.9°C
Winds 17.8 mph 28.6 kmh 2.0 mph 3.2 kmh 7.0 mph SW11.3 kmh SW
Wind Gusts 30.1 mph48.4 kmh 4.3 mph6.9 kmh 14.0 mph22.5 kmh
Humidity 95% 71% 84%
Pressure 29.95 in1014.2 mb 29.65 in1004.1 mb -
Precipitation 0.91 in23.1 mm - -
Hour Temp Dew Point Humidity Winds Wind Gusts Pressure Precip Precip Rate Daily Precip Total
12:00 AM 58.6°F14.8°C 49.6°F9.8°C 72% 4.4 mph W7.1 kmh W 12.9 mph20.8 kmh 29.95 in1014.2 mb 0.00 in0.0 mm 0.00 in0.0 mm 0.00 in0.0 mm
12:15 AM 58.6°F14.8°C 49.6°F9.8°C 72% 2.7 mph WNW4.3 kmh WNW 9.7 mph15.6 kmh 29.95 in1014.2 mb 0.00 in0.0 mm 0.00 in0.0 mm 0.00 in0.0 mm
12:30 AM 58.6°F14.8°C 49.3°F9.6°C 71% 2.3 mph W3.7 kmh W 6.1 mph9.8 kmh 29.92 in1013.2 mb 0.00 in0.0 mm 0.00 in0.0 mm 0.00 in0.0 mm
12:45 AM 58.5°F14.7°C 49.1°F9.5°C 71% 2.4 mph WNW3.9 kmh WNW 5.4 mph8.7 kmh 29.92 in1013.2 mb 0.00 in0.0 mm 0.00 in0.0 mm 0.00 in0.0 mm
01:00 AM 58.3°F14.6°C 49.3°F9.6°C 72% 3.0 mph SW4.8 kmh SW 10.4 mph16.7 kmh 29.92 in1013.2 mb 0.00 in0.0 mm 0.00 in0.0 mm 0.00 in0.0 mm
01:15 AM 58.3°F14.6°C 49.3°F9.6°C 72% 3.9 mph WSW6.3 kmh WSW 8.9 mph14.3 kmh 29.92 in1013.2 mb 0.00 in0.0 mm 0.00 in0.0 mm 0.00 in0.0 mm
01:30 AM 58.3°F14.6°C 49.3°F9.6°C 72% 3.5 mph W5.6 kmh W 12.9 mph20.8 kmh 29.92 in1013.2 mb 0.00 in0.0 mm 0.00 in0.0 mm 0.00 in0.0 mm
01:45 AM 58.5°F14.7°C 49.5°F9.7°C 72% 4.7 mph W7.6 kmh W 8.9 mph14.3 kmh 29.92 in1013.2 mb 0.00 in0.0 mm 0.00 in0.0 mm 0.00 in0.0 mm
02:00 AM 58.5°F14.7°C 49.5°F9.7°C 72% 2.7 mph SW4.3 kmh SW 6.8 mph10.9 kmh 29.89 in1012.2 mb 0.00 in0.0 mm 0.00 in0.0 mm 0.00 in0.0 mm
02:15 AM 58.1°F14.5°C 49.1°F9.5°C 72% 3.1 mph W5.0 kmh W 10.0 mph16.1 kmh 29.92 in1013.2 mb 0.00 in0.0 mm 0.00 in0.0 mm 0.00 in0.0 mm
02:30 AM 58.3°F14.6°C 49.3°F9.6°C 72% 4.2 mph WSW6.8 kmh WSW 10.0 mph16.1 kmh 29.92 in1013.2 mb 0.00 in0.0 mm 0.00 in0.0 mm 0.00 in0.0 mm
02:45 AM 58.1°F14.5°C 49.1°F9.5°C 72% 3.8 mph W6.1 kmh W 13.6 mph21.9 kmh 29.89 in1012.2 mb 0.00 in0.0 mm 0.00 in0.0 mm 0.00 in0.0 mm
03:00 AM 58.3°F14.6°C 49.7°F9.8°C 73% 3.8 mph W6.1 kmh W 9.7 mph15.6 kmh 29.95 in1014.2 mb 0.00 in0.0 mm 0.00 in0.0 mm 0.00 in0.0 mm
03:15 AM 58.1°F14.5°C 49.9°F9.9°C 74% 2.8 mph WSW4.5 kmh WSW 9.3 mph15.0 kmh 29.92 in1013.2 mb 0.00 in0.0 mm 0.00 in0.0 mm 0.00 in0.0 mm
03:30 AM 57.9°F14.4°C 49.7°F9.8°C 74% 3.2 mph SW5.1 kmh SW 8.6 mph13.8 kmh 29.92 in1013.2 mb 0.00 in0.0 mm 0.00 in0.0 mm 0.00 in0.0 mm
03:45 AM 57.7°F14.3°C 49.5°F9.7°C 74% 3.7 mph WSW6.0 kmh WSW 7.5 mph12.1 kmh 29.92 in1013.2 mb 0.00 in0.0 mm 0.00 in0.0 mm 0.00 in0.0 mm
04:00 AM 57.7°F14.3°C 49.5°F9.7°C 74% 2.7 mph W4.3 kmh W 5.7 mph9.2 kmh 29.92 in1013.2 mb 0.00 in0.0 mm 0.00 in0.0 mm 0.00 in0.0 mm
04:15 AM 57.7°F14.3°C 49.5°F9.7°C 74% 3.2 mph W5.1 kmh W 6.4 mph10.3 kmh 29.89 in1012.2 mb 0.00 in0.0 mm 0.00 in0.0 mm 0.00 in0.0 mm
04:30 AM 57.6°F14.2°C 49.3°F9.6°C 74% 2.9 mph W4.7 kmh W 6.1 mph9.8 kmh 29.89 in1012.2 mb 0.00 in0.0 mm 0.00 in0.0 mm 0.00 in0.0 mm
04:45 AM 57.4°F14.1°C 49.5°F9.7°C 75% 2.2 mph SW3.5 kmh SW 6.4 mph10.3 kmh 29.86 in1011.2 mb 0.00 in0.0 mm 0.00 in0.0 mm 0.00 in0.0 mm
05:00 AM 57.6°F14.2°C 49.7°F9.8°C 75% 2.0 mph S3.2 kmh S 4.3 mph6.9 kmh 29.86 in1011.2 mb 0.00 in0.0 mm 0.00 in0.0 mm 0.00 in0.0 mm
05:15 AM 57.4°F14.1°C 49.9°F9.9°C 76% 2.8 mph SSW4.5 kmh SSW 6.1 mph9.8 kmh 29.86 in1011.2 mb 0.00 in0.0 mm 0.00 in0.0 mm 0.00 in0.0 mm
05:30 AM 57.7°F14.3°C 50.2°F10.1°C 76% 2.9 mph SSW4.7 kmh SSW 6.1 mph9.8 kmh 29.83 in1010.2 mb 0.00 in0.0 mm 0.00 in0.0 mm 0.00 in0.0 mm
05:45 AM 57.9°F14.4°C 50.8°F10.4°C 77% 3.3 mph SW5.3 kmh SW 6.1 mph9.8 kmh 29.86 in1011.2 mb 0.00 in0.0 mm 0.00 in0.0 mm 0.00 in0.0 mm
06:00 AM 58.1°F14.5°C 50.9°F10.5°C 77% 4.4 mph WSW7.1 kmh WSW 8.6 mph13.8 kmh 29.83 in1010.2 mb 0.00 in0.0 mm 0.00 in0.0 mm 0.00 in0.0 mm
06:15 AM 58.5°F14.7°C 51.3°F10.7°C 77% 4.3 mph SSW6.9 kmh SSW 7.9 mph12.7 kmh 29.86 in1011.2 mb 0.00 in0.0 mm 0.00 in0.0 mm 0.00 in0.0 mm
06:30 AM 58.8°F14.9°C 52.0°F11.1°C 78% 4.8 mph S7.7 kmh S 12.5 mph20.1 kmh 29.86 in1011.2 mb 0.00 in0.0 mm 0.00 in0.0 mm 0.00 in0.0 mm
06:45 AM 58.5°F14.7°C 52.3°F11.3°C 80% 6.9 mph S11.1 kmh S 20.4 mph32.8 kmh 29.86 in1011.2 mb 0.09 in2.3 mm 0.36 in9.1 mm 0.09 in2.3 mm
07:00 AM 57.9°F14.4°C 52.5°F11.4°C 82% 3.1 mph S5.0 kmh S 7.9 mph12.7 kmh 29.86 in1011.2 mb 0.09 in2.3 mm 0.00 in0.0 mm 0.09 in2.3 mm
07:15 AM 58.1°F14.5°C 53.6°F12.0°C 85% 6.9 mph S11.1 kmh S 15.0 mph24.1 kmh 29.86 in1011.2 mb 0.09 in2.3 mm 0.00 in0.0 mm 0.09 in2.3 mm
07:30 AM 58.1°F14.5°C 53.9°F12.2°C 86% 6.9 mph S11.1 kmh S 15.4 mph24.8 kmh 29.86 in1011.2 mb 0.09 in2.3 mm 0.00 in0.0 mm 0.09 in2.3 mm
07:45 AM 58.1°F14.5°C 53.9°F12.2°C 86% 8.0 mph S12.9 kmh S 15.7 mph25.3 kmh 29.86 in1011.2 mb 0.00 in0.0 mm 0.00 in0.0 mm 0.09 in2.3 mm
08:00 AM 57.9°F14.4°C 53.8°F12.1°C 86% 6.2 mph S10.0 kmh S 16.5 mph26.6 kmh 29.86 in1011.2 mb 0.05 in1.3 mm 0.07 in1.8 mm 0.14 in3.6 mm
08:15 AM 57.7°F14.3°C 53.6°F12.0°C 86% 5.0 mph S8.0 kmh S 11.5 mph18.5 kmh 29.83 in1010.2 mb 0.05 in1.3 mm 0.00 in0.0 mm 0.14 in3.6 mm
08:30 AM 57.9°F14.4°C 53.8°F12.1°C 86% 4.7 mph S7.6 kmh S 5.7 mph9.2 kmh 29.83 in1010.2 mb 0.05 in1.3 mm 0.00 in0.0 mm 0.14 in3.6 mm
08:45 AM 57.7°F14.3°C 54.2°F12.3°C 88% 13.7 mph NW22.0 kmh NW 16.8 mph27.0 kmh 29.83 in1010.2 mb 0.15 in3.8 mm 0.40 in10.2 mm 0.24 in6.1 mm
09:00 AM 57.0°F13.9°C 52.9°F11.6°C 86% 7.6 mph W12.2 kmh W 16.8 mph27.0 kmh 29.83 in1010.2 mb 0.15 in3.8 mm 0.00 in0.0 mm 0.29 in7.4 mm
09:15 AM 56.8°F13.8°C 53.0°F11.7°C 87% 6.4 mph W10.3 kmh W 7.9 mph12.7 kmh 29.83 in1010.2 mb 0.15 in3.8 mm 0.00 in0.0 mm 0.29 in7.4 mm
09:30 AM 57.0°F13.9°C 53.5°F11.9°C 88% 6.4 mph W10.3 kmh W 7.9 mph12.7 kmh 29.83 in1010.2 mb 0.19 in4.8 mm 0.16 in4.1 mm 0.34 in8.6 mm
09:45 AM 57.2°F14.0°C 54.0°F12.2°C 89% 6.9 mph S11.1 kmh S 11.8 mph19.0 kmh 29.80 in1009.1 mb 0.09 in2.3 mm 0.00 in0.0 mm 0.34 in8.6 mm
10:00 AM 57.4°F14.1°C 54.5°F12.5°C 90% 9.6 mph S15.4 kmh S 11.8 mph19.0 kmh 29.80 in1009.1 mb 0.05 in1.3 mm 0.00 in0.0 mm 0.34 in8.6 mm
10:15 AM 57.2°F14.0°C 54.3°F12.4°C 90% 10.1 mph S16.3 kmh S 13.6 mph21.9 kmh 29.80 in1009.1 mb 0.05 in1.3 mm 0.00 in0.0 mm 0.34 in8.6 mm
10:30 AM 57.0°F13.9°C 53.8°F12.1°C 89% 7.4 mph S11.9 kmh S 11.8 mph19.0 kmh 29.80 in1009.1 mb 0.05 in1.3 mm 0.00 in0.0 mm 0.38 in9.7 mm
10:45 AM 57.4°F14.1°C 54.2°F12.3°C 89% 9.5 mph S15.3 kmh S 16.8 mph27.0 kmh 29.83 in1010.2 mb 0.05 in1.3 mm 0.00 in0.0 mm 0.38 in9.7 mm
11:00 AM 57.4°F14.1°C 54.5°F12.5°C 90% 5.6 mph S9.0 kmh S 16.8 mph27.0 kmh 29.77 in1008.1 mb 0.05 in1.3 mm 0.00 in0.0 mm 0.38 in9.7 mm
11:15 AM 57.6°F14.2°C 54.6°F12.6°C 90% 6.1 mph S9.8 kmh S 19.0 mph30.6 kmh 29.77 in1008.1 mb 0.09 in2.3 mm 0.16 in4.1 mm 0.43 in10.9 mm
11:30 AM 57.9°F14.4°C 55.3°F12.9°C 91% 11.1 mph SSW17.9 kmh SSW 19.0 mph30.6 kmh 29.77 in1008.1 mb 0.05 in1.3 mm 0.00 in0.0 mm 0.43 in10.9 mm
11:45 AM 58.3°F14.6°C 56.0°F13.3°C 92% 10.1 mph SSW16.3 kmh SSW 17.5 mph28.2 kmh 29.71 in1006.1 mb 0.09 in2.3 mm 0.16 in4.1 mm 0.47 in11.9 mm
12:00 PM 58.1°F14.5°C 55.5°F13.1°C 91% 9.0 mph SSW14.5 kmh SSW 16.5 mph26.6 kmh 29.71 in1006.1 mb 0.05 in1.3 mm 0.00 in0.0 mm 0.47 in11.9 mm
12:15 PM 58.1°F14.5°C 55.5°F13.1°C 91% 6.4 mph S10.3 kmh S 9.7 mph15.6 kmh 29.77 in1008.1 mb 0.05 in1.3 mm 0.00 in0.0 mm 0.47 in11.9 mm
12:30 PM 57.9°F14.4°C 55.6°F13.1°C 92% 12.8 mph S20.6 kmh S 15.7 mph25.3 kmh 29.74 in1007.1 mb 0.10 in2.5 mm 0.20 in5.1 mm 0.53 in13.5 mm
12:45 PM 57.9°F14.4°C 55.6°F13.1°C 92% 7.3 mph S11.7 kmh S 14.0 mph22.5 kmh 29.71 in1006.1 mb 0.06 in1.5 mm 0.00 in0.0 mm 0.53 in13.5 mm
01:00 PM 58.1°F14.5°C 56.1°F13.4°C 93% 12.2 mph S19.6 kmh S 19.3 mph31.1 kmh 29.71 in1006.1 mb 0.09 in2.3 mm 0.04 in1.0 mm 0.57 in14.5 mm
01:15 PM 58.6°F14.8°C 56.6°F13.7°C 93% 12.5 mph S20.1 kmh S 15.4 mph24.8 kmh 29.71 in1006.1 mb 0.15 in3.8 mm 0.24 in6.1 mm 0.62 in15.7 mm
01:30 PM 59.0°F15.0°C 57.3°F14.1°C 94% 9.6 mph S15.4 kmh S 11.8 mph19.0 kmh 29.71 in1006.1 mb 0.14 in3.6 mm 0.00 in0.0 mm 0.67 in17.0 mm
01:45 PM 59.5°F15.3°C 57.8°F14.3°C 94% 9.6 mph S15.4 kmh S 11.8 mph19.0 kmh 29.68 in1005.1 mb 0.19 in4.8 mm 0.20 in5.1 mm 0.71 in18.0 mm
02:00 PM 59.9°F15.5°C 58.2°F14.6°C 94% 8.2 mph S13.2 kmh S 12.2 mph19.6 kmh 29.68 in1005.1 mb 0.15 in3.8 mm 0.00 in0.0 mm 0.71 in18.0 mm
02:15 PM 60.6°F15.9°C 59.2°F15.1°C 95% 17.8 mph SW28.6 kmh SW 27.6 mph44.4 kmh 29.68 in1005.1 mb 0.14 in3.6 mm 0.00 in0.0 mm 0.76 in19.3 mm
02:30 PM 61.0°F16.1°C 59.5°F15.3°C 95% 10.5 mph S16.9 kmh S 12.9 mph20.8 kmh 29.68 in1005.1 mb 0.09 in2.3 mm 0.00 in0.0 mm 0.76 in19.3 mm
02:45 PM 61.3°F16.3°C 59.9°F15.5°C 95% 10.5 mph S16.9 kmh S 12.9 mph20.8 kmh 29.68 in1005.1 mb 0.05 in1.3 mm 0.00 in0.0 mm 0.76 in19.3 mm
03:00 PM 61.5°F16.4°C 60.1°F15.6°C 95% 7.6 mph SSW12.2 kmh SSW 13.6 mph21.9 kmh 29.68 in1005.1 mb 0.05 in1.3 mm 0.00 in0.0 mm 0.76 in19.3 mm
03:15 PM 61.9°F16.6°C 60.4°F15.8°C 95% 9.9 mph SW15.9 kmh SW 23.6 mph38.0 kmh 29.71 in1006.1 mb 0.00 in0.0 mm 0.00 in0.0 mm 0.76 in19.3 mm
03:30 PM 61.9°F16.6°C 60.4°F15.8°C 95% 10.0 mph WSW16.1 kmh WSW 17.5 mph28.2 kmh 29.65 in1004.1 mb 0.00 in0.0 mm 0.00 in0.0 mm 0.76 in19.3 mm
03:45 PM 61.9°F16.6°C 60.4°F15.8°C 95% 9.2 mph WSW14.8 kmh WSW 17.2 mph27.7 kmh 29.68 in1005.1 mb 0.00 in0.0 mm 0.00 in0.0 mm 0.76 in19.3 mm
04:00 PM 62.1°F16.7°C 60.6°F15.9°C 95% 10.0 mph WSW16.1 kmh WSW 19.3 mph31.1 kmh 29.68 in1005.1 mb 0.05 in1.3 mm 0.07 in1.8 mm 0.81 in20.6 mm
04:15 PM 61.3°F16.3°C 59.6°F15.3°C 94% 8.0 mph W12.9 kmh W 30.1 mph48.4 kmh 29.68 in1005.1 mb 0.15 in3.8 mm 0.40 in10.2 mm 0.91 in23.1 mm
04:30 PM 60.8°F16.0°C 59.1°F15.1°C 94% 8.6 mph W13.8 kmh W 16.1 mph25.9 kmh 29.68 in1005.1 mb 0.15 in3.8 mm 0.00 in0.0 mm 0.91 in23.1 mm
04:45 PM 60.8°F16.0°C 59.1°F15.1°C 94% 5.6 mph W9.0 kmh W 8.9 mph14.3 kmh 29.68 in1005.1 mb 0.15 in3.8 mm 0.00 in0.0 mm 0.91 in23.1 mm
05:00 PM 60.1°F15.6°C 58.0°F14.4°C 93% 6.5 mph WSW10.5 kmh WSW 11.8 mph19.0 kmh 29.71 in1006.1 mb 0.10 in2.5 mm 0.00 in0.0 mm 0.91 in23.1 mm
05:15 PM 59.4°F15.2°C 57.0°F13.9°C 92% 6.5 mph W10.5 kmh W 11.5 mph18.5 kmh 29.71 in1006.1 mb 0.00 in0.0 mm 0.00 in0.0 mm 0.91 in23.1 mm
05:30 PM 59.2°F15.1°C 55.9°F13.3°C 89% 8.1 mph W13.0 kmh W 17.5 mph28.2 kmh 29.71 in1006.1 mb 0.00 in0.0 mm 0.00 in0.0 mm 0.91 in23.1 mm
05:45 PM 58.8°F14.9°C 55.3°F12.9°C 88% 6.2 mph W10.0 kmh W 17.5 mph28.2 kmh 29.74 in1007.1 mb 0.00 in0.0 mm 0.00 in0.0 mm 0.91 in23.1 mm
06:00 PM 58.8°F14.9°C 55.3°F12.9°C 88% 6.6 mph W10.6 kmh W 15.4 mph24.8 kmh 29.74 in1007.1 mb 0.00 in0.0 mm 0.00 in0.0 mm 0.91 in23.1 mm
06:15 PM 58.6°F14.8°C 54.8°F12.7°C 87% 5.7 mph W9.2 kmh W 12.2 mph19.6 kmh 29.74 in1007.1 mb 0.00 in0.0 mm 0.00 in0.0 mm 0.91 in23.1 mm
06:30 PM 58.5°F14.7°C 54.0°F12.2°C 85% 6.8 mph W10.9 kmh W 19.7 mph31.7 kmh 29.74 in1007.1 mb 0.00 in0.0 mm 0.00 in0.0 mm 0.91 in23.1 mm
06:45 PM 58.6°F14.8°C 53.8°F12.1°C 84% 7.4 mph W11.9 kmh W 13.6 mph21.9 kmh 29.74 in1007.1 mb 0.00 in0.0 mm 0.00 in0.0 mm 0.91 in23.1 mm
07:00 PM 58.8°F14.9°C 54.0°F12.2°C 84% 7.5 mph W12.1 kmh W 12.9 mph20.8 kmh 29.74 in1007.1 mb 0.00 in0.0 mm 0.00 in0.0 mm 0.91 in23.1 mm
07:15 PM 59.0°F15.0°C 54.2°F12.3°C 84% 7.1 mph W11.4 kmh W 13.6 mph21.9 kmh 29.74 in1007.1 mb 0.00 in0.0 mm 0.00 in0.0 mm 0.91 in23.1 mm
07:30 PM 59.0°F15.0°C 54.2°F12.3°C 84% 8.8 mph W14.2 kmh W 19.0 mph30.6 kmh 29.71 in1006.1 mb 0.00 in0.0 mm 0.00 in0.0 mm 0.91 in23.1 mm
07:45 PM 58.6°F14.8°C 53.8°F12.1°C 84% 9.3 mph W15.0 kmh W 20.0 mph32.2 kmh 29.74 in1007.1 mb 0.00 in0.0 mm 0.00 in0.0 mm 0.91 in23.1 mm
08:00 PM 58.6°F14.8°C 53.8°F12.1°C 84% 8.3 mph W13.4 kmh W 17.5 mph28.2 kmh 29.77 in1008.1 mb 0.00 in0.0 mm 0.00 in0.0 mm 0.91 in23.1 mm
08:15 PM 58.8°F14.9°C 54.0°F12.2°C 84% 5.9 mph W9.5 kmh W 11.5 mph18.5 kmh 29.77 in1008.1 mb 0.00 in0.0 mm 0.00 in0.0 mm 0.91 in23.1 mm
08:30 PM 58.8°F14.9°C 53.3°F11.8°C 82% 8.5 mph W13.7 kmh W 22.5 mph36.2 kmh 29.77 in1008.1 mb 0.00 in0.0 mm 0.00 in0.0 mm 0.91 in23.1 mm
08:45 PM 58.8°F14.9°C 53.0°F11.7°C 81% 9.2 mph W14.8 kmh W 25.1 mph40.4 kmh 29.80 in1009.1 mb 0.00 in0.0 mm 0.00 in0.0 mm 0.91 in23.1 mm
09:00 PM 58.6°F14.8°C 52.1°F11.2°C 79% 7.7 mph W12.4 kmh W 20.8 mph33.5 kmh 29.80 in1009.1 mb 0.00 in0.0 mm 0.00 in0.0 mm 0.91 in23.1 mm
09:15 PM 58.6°F14.8°C 52.5°F11.4°C 80% 7.2 mph W11.6 kmh W 11.8 mph19.0 kmh 29.80 in1009.1 mb 0.00 in0.0 mm 0.00 in0.0 mm 0.91 in23.1 mm
09:30 PM 58.8°F14.9°C 52.7°F11.5°C 80% 8.5 mph WNW13.7 kmh WNW 27.2 mph43.8 kmh 29.80 in1009.1 mb 0.00 in0.0 mm 0.00 in0.0 mm 0.91 in23.1 mm
09:45 PM 58.6°F14.8°C 52.5°F11.4°C 80% 8.0 mph W12.9 kmh W 17.5 mph28.2 kmh 29.80 in1009.1 mb 0.00 in0.0 mm 0.00 in0.0 mm 0.91 in23.1 mm
10:00 PM 58.5°F14.7°C 52.0°F11.1°C 79% 9.0 mph W14.5 kmh W 21.8 mph35.1 kmh 29.80 in1009.1 mb 0.00 in0.0 mm 0.00 in0.0 mm 0.91 in23.1 mm
10:15 PM 58.5°F14.7°C 52.0°F11.1°C 79% 6.0 mph W9.7 kmh W 14.0 mph22.5 kmh 29.77 in1008.1 mb 0.00 in0.0 mm 0.00 in0.0 mm 0.91 in23.1 mm
10:30 PM 58.3°F14.6°C 51.4°F10.8°C 78% 6.2 mph W10.0 kmh W 17.2 mph27.7 kmh 29.80 in1009.1 mb 0.00 in0.0 mm 0.00 in0.0 mm 0.91 in23.1 mm
10:45 PM 58.1°F14.5°C 50.9°F10.5°C 77% 7.9 mph W12.7 kmh W 26.5 mph42.6 kmh 29.77 in1008.1 mb 0.00 in0.0 mm 0.00 in0.0 mm 0.91 in23.1 mm
11:00 PM 58.1°F14.5°C 50.9°F10.5°C 77% 8.4 mph W13.5 kmh W 24.3 mph39.1 kmh 29.77 in1008.1 mb 0.00 in0.0 mm 0.00 in0.0 mm 0.70 in17.8 mm
11:15 PM 58.1°F14.5°C 51.3°F10.7°C 78% 5.6 mph WNW9.0 kmh WNW 10.0 mph16.1 kmh 29.77 in1008.1 mb 0.00 in0.0 mm 0.00 in0.0 mm 0.70 in17.8 mm
11:30 PM 58.1°F14.5°C 51.6°F10.9°C 79% 5.8 mph W9.3 kmh W 15.7 mph25.3 kmh 29.80 in1009.1 mb 0.00 in0.0 mm 0.00 in0.0 mm 0.70 in17.8 mm
11:45 PM 57.9°F14.4°C 51.4°F10.8°C 79% 5.6 mph W9.0 kmh W 12.9 mph20.8 kmh 29.80 in1009.1 mb 0.00 in0.0 mm 0.00 in0.0 mm 0.70 in17.8 mm